Time;durP1;ratioP1;P1;durP2;ratioP2;P2;SDS_P1;SDS_P2;PMS_P1;PMS_P2;Temp;Humidity;BMP_temperature;BMP_pressure;BME280_temperature;BME280_humidity;BME280_pressure;Samples;Min_cycle;Max_cycle;Signal;HPM_P1;HPM_P2
2024/02/25 00:02:24;;;;;;;;;;;;;;;9.07;70.55;98431.30;68396;1279;1015143;-70
2024/02/25 00:05:28;;;;;;;;;;;;;;;9.04;70.76;98425.23;68401;1279;1015164;-70
2024/02/25 00:08:31;;;;;;;;;;;;;;;9.12;70.36;98430.66;68402;1279;1016035;-70
2024/02/25 00:11:34;;;;;;;;;;;;;;;9.17;70.56;98433.16;68386;1279;1015435;-69
2024/02/25 00:14:37;;;;;;;;;;;;;;;9.27;70.65;98428.55;68406;1279;1015484;-70
2024/02/25 00:17:39;;;;;;;;;;;;;;;9.36;70.72;98420.98;68395;1279;1015781;-70
2024/02/25 00:20:42;;;;;;;;;;;;;;;9.43;70.93;98416.20;68392;1279;1015898;-69
2024/02/25 00:23:44;;;;;;;;;;;;;;;9.41;71.47;98412.13;68383;1279;1015526;-70
2024/02/25 00:26:47;;;;;;;;;;;;;;;9.58;70.98;98418.41;68396;1279;1015521;-69
2024/02/25 00:29:49;;;;;;;;;;;;;;;9.65;71.08;98421.43;68396;1279;1015757;-70
2024/02/25 00:32:52;;;;;;;;;;;;;;;9.71;70.68;98421.79;68403;1279;1015308;-70
2024/02/25 00:35:55;;;;;;;;;;;;;;;9.77;70.67;98416.83;68400;1279;1016220;-70
2024/02/25 00:39:01;;;;;;;;;;;;;;;9.77;70.84;98414.38;68405;1279;1015488;-69
2024/02/25 00:42:03;;;;;;;;;;;;;;;9.85;70.28;98409.85;68400;1279;1016234;-70
2024/02/25 00:45:06;;;;;;;;;;;;;;;9.94;69.76;98412.13;68394;1279;1015753;-69
2024/02/25 00:48:08;;;;;;;;;;;;;;;9.93;70.17;98410.42;68392;1279;1016465;-69
2024/02/25 00:51:11;;;;;;;;;;;;;;;10.02;70.25;98407.33;68406;1279;1015363;-68
2024/02/25 00:54:14;;;;;;;;;;;;;;;10.03;70.49;98407.83;68407;1279;1017327;-70
2024/02/25 00:57:16;;;;;;;;;;;;;;;10.04;70.66;98405.29;68395;1279;1015996;-69
2024/02/25 01:00:19;;;;;;;;;;;;;;;10.05;71.18;98404.00;68387;1279;1015463;-69
2024/02/25 01:03:21;;;;;;;;;;;;;;;10.05;71.11;98407.67;68393;1279;1016060;-70
2024/02/25 01:06:24;;;;;;;;;;;;;;;10.05;71.33;98410.66;68390;1279;1015212;-70
2024/02/25 01:09:26;;;;;;;;;;;;;;;10.13;71.10;98406.17;68389;1279;1015553;-69
2024/02/25 01:12:29;;;;;;;;;;;;;;;10.31;70.44;98407.95;68394;1279;1015273;-69
2024/02/25 01:15:32;;;;;;;;;;;;;;;10.39;70.20;98406.38;68395;1279;1015708;-69
2024/02/25 01:18:35;;;;;;;;;;;;;;;10.52;69.52;98402.17;68388;1279;1016068;-69
2024/02/25 01:21:38;;;;;;;;;;;;;;;10.49;69.61;98401.85;68383;1279;1016144;-69
2024/02/25 01:24:41;;;;;;;;;;;;;;;10.48;69.73;98398.98;68401;1279;1016127;-69
2024/02/25 01:27:44;;;;;;;;;;;;;;;10.50;69.46;98399.84;68403;1279;1016150;-69
2024/02/25 01:30:47;;;;;;;;;;;;;;;10.14;71.22;98396.12;68419;1279;1014253;-69
2024/02/25 01:33:50;;;;;;;;;;;;;;;10.03;72.23;98397.36;68398;1279;1015340;-69
2024/02/25 01:36:53;;;;;;;;;;;;;;;9.89;73.01;98394.77;68376;1279;1016127;-70
2024/02/25 01:39:55;;;;;;;;;;;;;;;9.92;72.96;98385.52;68398;1279;1015676;-69
2024/02/25 01:42:58;;;;;;;;;;;;;;;9.89;72.90;98380.62;68399;1279;1015213;-69
2024/02/25 01:46:00;;;;;;;;;;;;;;;9.97;72.60;98382.05;68406;1279;1015323;-70
2024/02/25 01:49:03;;;;;;;;;;;;;;;9.89;73.02;98385.14;68397;1279;1015624;-69
2024/02/25 01:52:05;;;;;;;;;;;;;;;9.94;72.96;98391.99;68400;1279;1015908;-69
2024/02/25 01:55:08;;;;;;;;;;;;;;;9.93;73.05;98390.34;68398;1279;1015888;-69
2024/02/25 01:58:10;;;;;;;;;;;;;;;9.92;73.34;98388.98;68392;1279;1015884;-70
2024/02/25 02:01:13;;;;;;;;;;;;;;;9.91;73.40;98390.11;68400;1279;1015684;-69
2024/02/25 02:04:16;;;;;;;;;;;;;;;9.86;73.62;98383.93;68421;1279;1015711;-62
2024/02/25 02:07:19;;;;;;;;;;;;;;;9.84;73.78;98376.20;68398;1279;1015802;-70
2024/02/25 02:10:21;;;;;;;;;;;;;;;9.83;73.62;98375.97;68402;1279;1015873;-69
2024/02/25 02:13:24;;;;;;;;;;;;;;;9.81;73.56;98378.69;68403;1279;1014190;-69
2024/02/25 02:16:27;;;;;;;;;;;;;;;9.75;74.16;98378.72;68396;1279;1015535;-69
2024/02/25 02:19:29;;;;;;;;;;;;;;;9.73;74.00;98378.36;68392;1279;1016131;-68
2024/02/25 02:22:32;;;;;;;;;;;;;;;9.69;74.20;98378.73;68413;1279;1015740;-70
2024/02/25 02:25:34;;;;;;;;;;;;;;;9.66;74.28;98387.84;68388;1279;1015988;-69
2024/02/25 02:28:37;;;;;;;;;;;;;;;9.74;74.39;98387.36;68404;1279;1015714;-68
2024/02/25 02:31:40;;;;;;;;;;;;;;;9.82;73.98;98391.89;68416;1279;1015571;-70
2024/02/25 02:34:42;;;;;;;;;;;;;;;9.94;74.05;98392.67;68407;1279;1015703;-69
2024/02/25 02:37:45;;;;;;;;;;;;;;;10.12;73.13;98395.91;68403;1279;1015622;-69
2024/02/25 02:40:47;;;;;;;;;;;;;;;10.15;72.84;98390.79;68413;1279;1016372;-70
2024/02/25 02:43:50;;;;;;;;;;;;;;;10.04;72.95;98388.05;68390;1279;1016180;-69
2024/02/25 02:46:53;;;;;;;;;;;;;;;9.85;74.28;98396.08;68396;1279;1015521;-69
2024/02/25 02:49:55;;;;;;;;;;;;;;;9.87;73.86;98398.42;68401;1279;1015731;-69
2024/02/25 02:52:59;;;;;;;;;;;;;;;9.89;74.74;98397.38;68406;1279;1015901;-69
2024/02/25 02:56:01;;;;;;;;;;;;;;;9.84;74.15;98399.48;68401;1279;1015591;-69
2024/02/25 02:59:04;;;;;;;;;;;;;;;9.89;74.09;98400.68;68388;1279;1015289;-69
2024/02/25 03:02:06;;;;;;;;;;;;;;;9.99;74.01;98401.46;68419;1279;1015799;-68
2024/02/25 03:05:09;;;;;;;;;;;;;;;9.84;74.46;98394.92;68400;1279;1016077;-69
2024/02/25 03:08:12;;;;;;;;;;;;;;;9.81;74.49;98390.36;68388;1279;1015467;-69
2024/02/25 03:11:14;;;;;;;;;;;;;;;9.84;73.99;98397.39;68399;1279;1016199;-70
2024/02/25 03:14:16;;;;;;;;;;;;;;;9.76;74.03;98389.15;68413;1279;1015602;-69
2024/02/25 03:17:20;;;;;;;;;;;;;;;9.76;73.57;98391.83;68414;1279;1015484;-69
2024/02/25 03:20:23;;;;;;;;;;;;;;;9.79;73.78;98395.23;68429;1279;1015182;-69
2024/02/25 03:23:25;;;;;;;;;;;;;;;9.91;73.45;98393.40;68407;1279;1016027;-69
2024/02/25 03:26:28;;;;;;;;;;;;;;;9.86;73.93;98392.67;68403;1279;1015630;-69
2024/02/25 03:29:31;;;;;;;;;;;;;;;9.88;73.58;98393.63;68401;1279;1015189;-67
2024/02/25 03:32:34;;;;;;;;;;;;;;;9.90;73.44;98388.80;68414;1279;1015507;-69
2024/02/25 03:35:41;;;;;;;;;;;;;;;9.99;73.52;98383.30;68403;1279;1015873;-69
2024/02/25 03:38:43;;;;;;;;;;;;;;;9.94;73.22;98378.73;68416;1279;1015555;-69
2024/02/25 03:41:46;;;;;;;;;;;;;;;9.96;73.43;98377.06;68410;1279;1016021;-70
2024/02/25 03:44:48;;;;;;;;;;;;;;;9.98;73.47;98381.62;68406;1279;1015160;-69
2024/02/25 03:47:51;;;;;;;;;;;;;;;9.96;73.11;98377.58;68426;1279;1015921;-70
2024/02/25 03:50:53;;;;;;;;;;;;;;;9.91;73.14;98376.45;68425;1279;1015678;-62
2024/02/25 03:53:56;;;;;;;;;;;;;;;9.85;73.01;98377.75;68394;1279;1015259;-70
2024/02/25 03:56:58;;;;;;;;;;;;;;;9.79;72.94;98378.31;68402;1279;1016013;-70
2024/02/25 04:00:03;;;;;;;;;;;;;;;9.63;73.19;98380.23;68396;1279;1015398;-69
2024/02/25 04:03:06;;;;;;;;;;;;;;;9.56;74.14;98380.83;68406;1279;1015710;-70
2024/02/25 04:06:09;;;;;;;;;;;;;;;9.58;74.31;98387.50;68421;1279;1016125;-69
2024/02/25 04:09:11;;;;;;;;;;;;;;;9.65;74.08;98389.45;68426;1279;1015392;-61
2024/02/25 04:12:14;;;;;;;;;;;;;;;9.74;74.77;98388.60;68403;1279;1015950;-69
2024/02/25 04:15:16;;;;;;;;;;;;;;;9.70;74.43;98385.15;68418;1279;1015979;-66
2024/02/25 04:18:19;;;;;;;;;;;;;;;9.73;74.66;98387.79;68410;1279;1016247;-70
2024/02/25 04:21:21;;;;;;;;;;;;;;;9.73;74.09;98386.71;68404;1279;1015881;-70
2024/02/25 04:24:25;;;;;;;;;;;;;;;9.73;74.08;98379.55;68414;1279;1014916;-70
2024/02/25 04:27:27;;;;;;;;;;;;;;;9.75;73.94;98379.77;68427;1279;1015199;-70
2024/02/25 04:30:30;;;;;;;;;;;;;;;9.65;74.62;98384.11;68413;1279;1015755;-69
2024/02/25 04:33:32;;;;;;;;;;;;;;;9.73;74.57;98382.02;68408;1279;1015896;-69
2024/02/25 04:36:35;;;;;;;;;;;;;;;9.74;74.70;98373.91;68414;1279;1016126;-69
2024/02/25 04:39:38;;;;;;;;;;;;;;;9.76;74.77;98376.97;68417;1279;1015398;-69
2024/02/25 04:42:41;;;;;;;;;;;;;;;9.85;74.35;98383.30;68400;1279;1016373;-69
2024/02/25 04:45:44;;;;;;;;;;;;;;;9.68;74.94;98386.02;68419;1279;1015965;-69
2024/02/25 04:48:47;;;;;;;;;;;;;;;9.65;75.47;98385.31;68415;1279;1015254;-69
2024/02/25 04:51:50;;;;;;;;;;;;;;;9.66;75.67;98380.36;68415;1279;1015985;-70
2024/02/25 04:54:52;;;;;;;;;;;;;;;9.65;75.61;98376.96;68395;1279;1015618;-70
2024/02/25 04:57:55;;;;;;;;;;;;;;;9.63;75.13;98378.81;68403;1279;1015624;-70
2024/02/25 05:00:57;;;;;;;;;;;;;;;9.61;75.21;98383.98;68415;1279;1014366;-69
2024/02/25 05:04:00;;;;;;;;;;;;;;;9.61;74.86;98382.77;68413;1279;1015582;-69
2024/02/25 05:07:02;;;;;;;;;;;;;;;9.41;75.08;98378.60;68414;1279;1016080;-69
2024/02/25 05:10:05;;;;;;;;;;;;;;;9.39;74.60;98379.80;68371;1279;1015363;-70
2024/02/25 05:13:08;;;;;;;;;;;;;;;9.32;74.67;98376.40;68417;1279;1015958;-70
2024/02/25 05:16:10;;;;;;;;;;;;;;;9.17;74.82;98387.80;68418;1279;1016094;-70
2024/02/25 05:19:13;;;;;;;;;;;;;;;9.25;74.52;98389.21;68423;1279;1016068;-69
2024/02/25 05:22:15;;;;;;;;;;;;;;;9.28;74.36;98389.02;68417;1279;1015291;-69
2024/02/25 05:25:18;;;;;;;;;;;;;;;9.32;74.42;98393.98;68432;1279;1015589;-69
2024/02/25 05:28:20;;;;;;;;;;;;;;;9.27;74.33;98395.88;68405;1279;1016207;-69
2024/02/25 05:34:45;;;;;;;;;;;;;;;9.23;75.01;98400.69;68429;1279;1015500;-69
2024/02/25 05:37:48;;;;;;;;;;;;;;;9.24;75.94;98401.14;68417;1279;1015255;-69
2024/02/25 05:40:50;;;;;;;;;;;;;;;9.29;75.62;98401.20;68416;1279;1015423;-69
2024/02/25 05:43:54;;;;;;;;;;;;;;;9.32;75.97;98400.27;68420;1279;1016145;-70
2024/02/25 05:46:56;;;;;;;;;;;;;;;9.29;75.63;98396.30;68410;1279;1016017;-70
2024/02/25 05:49:59;;;;;;;;;;;;;;;9.25;75.00;98401.58;68405;1279;1016392;-68
2024/02/25 05:53:01;;;;;;;;;;;;;;;9.23;75.08;98405.04;68435;1279;1016383;-69
2024/02/25 05:56:04;;;;;;;;;;;;;;;9.23;75.33;98406.42;68426;1279;1015499;-69
2024/02/25 05:59:07;;;;;;;;;;;;;;;9.21;74.81;98402.58;68416;1279;1015601;-70
2024/02/25 06:02:10;;;;;;;;;;;;;;;9.09;75.88;98408.55;68430;1279;1016105;-69
2024/02/25 06:05:12;;;;;;;;;;;;;;;9.08;75.58;98417.49;68449;1279;1015089;-67
2024/02/25 06:08:15;;;;;;;;;;;;;;;9.10;75.88;98428.18;68423;1279;1015871;-70
2024/02/25 06:11:17;;;;;;;;;;;;;;;9.14;76.01;98424.95;68417;1279;1015454;-69
2024/02/25 06:14:20;;;;;;;;;;;;;;;9.20;76.07;98422.50;68432;1279;1015738;-70
2024/02/25 06:17:23;;;;;;;;;;;;;;;9.27;76.17;98422.60;68414;1279;1016065;-70
2024/02/25 06:20:25;;;;;;;;;;;;;;;9.46;75.73;98410.98;68418;1279;1016139;-70
2024/02/25 06:23:28;;;;;;;;;;;;;;;9.58;74.89;98409.30;68438;1279;1015785;-70
2024/02/25 06:26:30;;;;;;;;;;;;;;;9.57;75.06;98406.80;68440;1279;1016543;-70
2024/02/25 06:29:33;;;;;;;;;;;;;;;9.69;74.72;98410.20;68429;1279;1015641;-69
2024/02/25 06:32:36;;;;;;;;;;;;;;;9.73;74.52;98414.14;68418;1279;1015754;-69
2024/02/25 06:35:38;;;;;;;;;;;;;;;9.83;74.61;98414.33;68423;1279;1015745;-69
2024/02/25 06:38:41;;;;;;;;;;;;;;;9.79;74.74;98411.83;68428;1279;1015944;-69
2024/02/25 06:41:44;;;;;;;;;;;;;;;9.87;74.86;98412.55;68427;1279;1015203;-69
2024/02/25 06:44:47;;;;;;;;;;;;;;;10.07;74.50;98408.11;68426;1279;1015626;-70
2024/02/25 06:47:49;;;;;;;;;;;;;;;10.29;73.91;98408.06;68421;1279;1016069;-69
2024/02/25 06:50:52;;;;;;;;;;;;;;;10.32;74.84;98404.20;68423;1279;1015904;-69
2024/02/25 06:53:55;;;;;;;;;;;;;;;10.47;75.11;98403.77;68414;1279;1014335;-69
2024/02/25 06:56:57;;;;;;;;;;;;;;;10.80;74.84;98403.99;68408;1279;1015613;-69
2024/02/25 07:00:00;;;;;;;;;;;;;;;10.99;74.58;98404.80;68430;1279;1015644;-69
2024/02/25 07:03:03;;;;;;;;;;;;;;;11.15;74.07;98397.52;68446;1279;1015729;-70
2024/02/25 07:06:05;;;;;;;;;;;;;;;11.19;74.59;98395.13;68431;1279;1015870;-70
2024/02/25 07:09:08;;;;;;;;;;;;;;;11.34;73.92;98396.95;68436;1279;1016215;-69
2024/02/25 07:12:12;;;;;;;;;;;;;;;11.42;74.24;98397.42;68457;1279;1016009;-69
2024/02/25 07:15:14;;;;;;;;;;;;;;;11.58;74.67;98397.83;68431;1279;1015602;-69
2024/02/25 07:18:17;;;;;;;;;;;;;;;11.76;74.71;98398.63;68467;1279;1015922;-68
2024/02/25 07:21:19;;;;;;;;;;;;;;;11.97;73.89;98395.77;68448;1279;1015249;-69
2024/02/25 07:24:22;;;;;;;;;;;;;;;12.10;72.89;98390.90;68428;1279;1015531;-69
2024/02/25 07:27:24;;;;;;;;;;;;;;;12.18;73.17;98391.98;68424;1279;1014589;-69
2024/02/25 07:30:27;;;;;;;;;;;;;;;12.39;73.31;98394.59;68434;1279;1015503;-69
2024/02/25 07:33:30;;;;;;;;;;;;;;;12.62;72.30;98388.99;68451;1279;1015858;-69
2024/02/25 07:36:33;;;;;;;;;;;;;;;12.82;71.15;98386.19;68420;1279;1014408;-69
2024/02/25 07:39:35;;;;;;;;;;;;;;;13.24;70.60;98379.46;68434;1279;1015089;-69
2024/02/25 07:42:38;;;;;;;;;;;;;;;13.43;69.79;98377.60;68427;1279;1016583;-69
2024/02/25 07:45:40;;;;;;;;;;;;;;;13.67;69.12;98376.20;68439;1279;1016259;-70
2024/02/25 07:48:45;;;;;;;;;;;;;;;13.91;67.24;98381.00;68438;1279;1015508;-69
2024/02/25 07:51:47;;;;;;;;;;;;;;;14.04;67.70;98376.02;68442;1279;1015467;-70
2024/02/25 07:54:50;;;;;;;;;;;;;;;14.08;67.02;98376.09;68440;1279;1015461;-69
2024/02/25 07:57:52;;;;;;;;;;;;;;;14.15;67.39;98374.50;68445;1279;1015568;-69
2024/02/25 08:00:55;;;;;;;;;;;;;;;14.34;66.71;98369.67;68444;1279;1015845;-69
2024/02/25 08:03:57;;;;;;;;;;;;;;;14.77;65.11;98369.46;65852;1279;6362898;-69
2024/02/25 08:07:00;;;;;;;;;;;;;;;14.90;65.16;98361.84;68431;1279;1015493;-70
2024/02/25 08:10:02;;;;;;;;;;;;;;;15.04;64.48;98352.72;68456;1279;1015820;-69
2024/02/25 08:13:05;;;;;;;;;;;;;;;15.15;63.97;98348.05;68437;1279;1016159;-69
2024/02/25 08:16:08;;;;;;;;;;;;;;;15.36;63.86;98346.92;68438;1279;1015714;-70
2024/02/25 08:19:10;;;;;;;;;;;;;;;15.48;62.71;98342.33;68432;1279;1015430;-69
2024/02/25 08:22:13;;;;;;;;;;;;;;;15.60;61.91;98342.08;68448;1279;1015523;-69
2024/02/25 08:25:15;;;;;;;;;;;;;;;15.47;61.43;98338.23;68448;1280;1016090;-69
2024/02/25 08:28:21;;;;;;;;;;;;;;;15.46;61.65;98336.89;68440;1279;1016815;-69
2024/02/25 08:31:24;;;;;;;;;;;;;;;15.68;60.29;98332.08;68429;1279;1015691;-70
2024/02/25 08:34:26;;;;;;;;;;;;;;;15.69;59.92;98324.65;68435;1279;1016073;-70
2024/02/25 08:37:29;;;;;;;;;;;;;;;15.79;59.62;98321.98;68440;1279;1015270;-69
2024/02/25 08:40:31;;;;;;;;;;;;;;;15.96;60.42;98315.02;68357;1281;1015974;-64
2024/02/25 08:43:34;;;;;;;;;;;;;;;16.19;59.85;98308.34;68350;1281;1015467;-69
2024/02/25 08:46:37;;;;;;;;;;;;;;;16.36;58.50;98300.73;68343;1281;1016169;-69
2024/02/25 08:49:39;;;;;;;;;;;;;;;16.44;57.43;98301.78;68342;1281;1015415;-70
2024/02/25 08:52:42;;;;;;;;;;;;;;;16.45;57.79;98303.22;68354;1281;1015814;-69
2024/02/25 08:55:44;;;;;;;;;;;;;;;16.68;57.66;98297.80;68342;1281;1014477;-69
2024/02/25 08:58:49;;;;;;;;;;;;;;;16.94;56.59;98294.50;68347;1281;1016126;-65
2024/02/25 09:01:52;;;;;;;;;;;;;;;17.10;56.79;98285.83;68350;1281;1015951;-69
2024/02/25 09:04:55;;;;;;;;;;;;;;;17.29;56.31;98282.98;68335;1281;1016306;-69
2024/02/25 09:07:59;;;;;;;;;;;;;;;17.46;56.02;98287.17;68334;1281;1015241;-67
2024/02/25 09:11:01;;;;;;;;;;;;;;;17.54;55.52;98288.70;68342;1281;1015407;-70
2024/02/25 09:14:04;;;;;;;;;;;;;;;17.72;54.57;98287.08;68346;1281;1015819;-69
2024/02/25 09:17:06;;;;;;;;;;;;;;;17.71;53.14;98285.38;68343;1281;1015845;-70
2024/02/25 09:20:09;;;;;;;;;;;;;;;17.83;54.03;98283.19;68358;1281;1014858;-64
2024/02/25 09:23:12;;;;;;;;;;;;;;;17.91;52.94;98280.60;68340;1281;1015335;-68
2024/02/25 09:26:14;;;;;;;;;;;;;;;18.06;51.34;98278.44;68350;1281;1015210;-69
2024/02/25 09:29:17;;;;;;;;;;;;;;;18.10;52.44;98283.54;68352;1281;1015464;-69
2024/02/25 09:32:19;;;;;;;;;;;;;;;18.27;51.63;98283.05;68349;1281;1015530;-69
2024/02/25 09:35:22;;;;;;;;;;;;;;;18.22;50.92;98276.98;68348;1281;1015583;-69
2024/02/25 09:38:26;;;;;;;;;;;;;;;18.35;49.72;98275.89;68355;1279;1015692;-69
2024/02/25 09:41:29;;;;;;;;;;;;;;;18.53;50.14;98269.83;68427;1279;1015919;-70
2024/02/25 09:44:31;;;;;;;;;;;;;;;18.66;49.94;98262.86;68450;1279;1016196;-69
2024/02/25 09:47:34;;;;;;;;;;;;;;;18.88;50.49;98262.30;68424;1279;1016056;-69
2024/02/25 09:50:36;;;;;;;;;;;;;;;19.13;49.88;98261.15;68429;1279;1015571;-69
2024/02/25 09:53:39;;;;;;;;;;;;;;;19.06;48.69;98258.45;68437;1279;1015568;-69
2024/02/25 09:56:42;;;;;;;;;;;;;;;19.21;48.04;98258.83;68435;1279;1015485;-69
2024/02/25 09:59:46;;;;;;;;;;;;;;;19.33;48.75;98261.08;68422;1279;1016125;-69
2024/02/25 10:02:49;;;;;;;;;;;;;;;19.57;48.33;98254.20;68427;1279;1015597;-69
2024/02/25 10:05:52;;;;;;;;;;;;;;;19.60;48.65;98245.46;68421;1279;1015834;-69
2024/02/25 10:08:54;;;;;;;;;;;;;;;19.72;48.57;98239.25;68447;1280;1015478;-70
2024/02/25 10:11:57;;;;;;;;;;;;;;;19.98;47.83;98239.13;68436;1279;1014694;-69
2024/02/25 10:14:59;;;;;;;;;;;;;;;20.07;46.77;98237.84;68437;1279;1015813;-69
2024/02/25 10:18:02;;;;;;;;;;;;;;;20.13;46.39;98234.91;68440;1279;1016190;-69
2024/02/25 10:21:04;;;;;;;;;;;;;;;20.13;46.75;98236.18;68439;1279;1015747;-69
2024/02/25 10:24:07;;;;;;;;;;;;;;;20.28;46.67;98231.35;68430;1279;1016155;-70
2024/02/25 10:27:10;;;;;;;;;;;;;;;20.47;45.66;98221.02;68441;1279;1015558;-70
2024/02/25 10:30:13;;;;;;;;;;;;;;;20.46;45.43;98223.18;68430;1279;1015843;-70
2024/02/25 10:33:16;;;;;;;;;;;;;;;20.57;44.63;98217.35;68428;1279;1015719;-68
2024/02/25 10:36:19;;;;;;;;;;;;;;;20.60;44.40;98219.36;68437;1279;1015682;-69
2024/02/25 10:39:24;;;;;;;;;;;;;;;20.50;42.54;98216.90;68434;1279;1016054;-69
2024/02/25 10:42:26;;;;;;;;;;;;;;;20.49;42.74;98219.55;68451;1279;1016112;-69
2024/02/25 10:45:29;;;;;;;;;;;;;;;20.52;42.75;98216.02;68446;1279;1015749;-69
2024/02/25 10:48:31;;;;;;;;;;;;;;;20.46;42.25;98213.79;68431;1279;1014460;-69
2024/02/25 10:51:34;;;;;;;;;;;;;;;20.39;42.75;98214.05;68428;1279;1015879;-70
2024/02/25 10:54:36;;;;;;;;;;;;;;;20.34;41.96;98209.80;68433;1279;1016292;-70
2024/02/25 10:57:41;;;;;;;;;;;;;;;20.16;42.09;98204.68;68440;1280;1016234;-69
2024/02/25 11:00:45;;;;;;;;;;;;;;;20.18;42.20;98206.32;68424;1280;1015177;-69
2024/02/25 11:03:48;;;;;;;;;;;;;;;20.13;42.13;98201.84;68429;1280;1015313;-68
2024/02/25 11:06:50;;;;;;;;;;;;;;;20.20;42.29;98197.29;68435;1279;1015798;-69
2024/02/25 11:09:53;;;;;;;;;;;;;;;20.34;42.59;98194.33;68432;1279;1015403;-70
2024/02/25 11:12:55;;;;;;;;;;;;;;;20.52;41.98;98191.34;68431;1279;1015791;-70
2024/02/25 11:15:58;;;;;;;;;;;;;;;20.42;42.13;98191.20;68437;1279;1016255;-69
2024/02/25 11:19:01;;;;;;;;;;;;;;;20.52;42.06;98185.20;68441;1279;1016024;-70
2024/02/25 11:22:06;;;;;;;;;;;;;;;20.73;42.15;98181.69;68431;1280;1015533;-70
2024/02/25 11:25:09;;;;;;;;;;;;;;;20.87;42.17;98171.61;68424;1280;1015062;-66
2024/02/25 11:28:12;;;;;;;;;;;;;;;21.18;41.45;98171.08;68431;1280;1015214;-69
2024/02/25 11:31:15;;;;;;;;;;;;;;;21.32;40.99;98165.58;68417;1269;1015696;-69
2024/02/25 11:34:18;;;;;;;;;;;;;;;21.36;41.00;98163.98;68434;1280;1015371;-69
2024/02/25 11:37:20;;;;;;;;;;;;;;;21.45;40.40;98167.54;68414;1280;1015361;-70
2024/02/25 11:40:23;;;;;;;;;;;;;;;21.58;40.12;98159.71;68438;1280;1015527;-68
2024/02/25 11:43:26;;;;;;;;;;;;;;;21.84;39.40;98152.75;68435;1280;1016087;-70
2024/02/25 11:46:28;;;;;;;;;;;;;;;21.88;37.78;98146.77;68433;1279;1016630;-70
2024/02/25 11:49:31;;;;;;;;;;;;;;;21.80;37.71;98142.15;68415;1279;1015834;-70
2024/02/25 11:52:33;;;;;;;;;;;;;;;21.85;38.14;98142.99;68424;1280;1015793;-68
2024/02/25 11:55:36;;;;;;;;;;;;;;;21.98;38.85;98132.58;68420;1280;1015981;-70
2024/02/25 11:58:38;;;;;;;;;;;;;;;22.38;38.56;98132.92;68441;1280;1015908;-69
2024/02/25 12:01:41;;;;;;;;;;;;;;;22.61;37.72;98129.67;68421;1280;1015795;-70
2024/02/25 12:04:43;;;;;;;;;;;;;;;22.72;36.94;98123.48;68427;1280;1015511;-70
2024/02/25 12:07:46;;;;;;;;;;;;;;;22.65;36.21;98124.35;68418;1279;1015416;-70
2024/02/25 12:10:49;;;;;;;;;;;;;;;22.57;36.45;98121.94;68432;1279;1015063;-70
2024/02/25 12:13:52;;;;;;;;;;;;;;;22.62;36.70;98122.02;68411;1279;1016188;-70
2024/02/25 12:16:54;;;;;;;;;;;;;;;22.52;34.77;98113.98;68431;1279;1016246;-69
2024/02/25 12:19:57;;;;;;;;;;;;;;;22.22;34.76;98115.28;68428;1279;1015418;-70
2024/02/25 12:23:00;;;;;;;;;;;;;;;22.08;35.51;98114.11;68430;1279;1014549;-70
2024/02/25 12:26:03;;;;;;;;;;;;;;;22.10;35.35;98119.96;68427;1280;1015790;-70
2024/02/25 12:29:06;;;;;;;;;;;;;;;22.04;35.53;98116.40;68439;1279;1015883;-69
2024/02/25 12:32:09;;;;;;;;;;;;;;;21.99;35.27;98110.05;68417;1279;1015440;-70
2024/02/25 12:35:11;;;;;;;;;;;;;;;21.82;35.03;98107.06;68404;1279;1015625;-70
2024/02/25 12:38:15;;;;;;;;;;;;;;;21.69;35.00;98115.31;68419;1279;1015463;-70
2024/02/25 12:41:18;;;;;;;;;;;;;;;21.31;35.04;98115.84;68429;1280;1015819;-70
2024/02/25 12:44:20;;;;;;;;;;;;;;;21.31;35.99;98112.13;68414;1279;1016048;-70
2024/02/25 12:47:23;;;;;;;;;;;;;;;21.30;36.08;98114.63;68420;1280;1015287;-69
2024/02/25 12:50:25;;;;;;;;;;;;;;;21.18;36.36;98115.21;68395;1280;1015650;-70
2024/02/25 12:53:28;;;;;;;;;;;;;;;21.23;36.62;98112.67;68434;1280;1015106;-70
2024/02/25 12:56:31;;;;;;;;;;;;;;;21.15;36.98;98115.58;68421;1280;1016234;-70
2024/02/25 12:59:33;;;;;;;;;;;;;;;21.13;37.34;98113.23;68419;1279;1015845;-70
2024/02/25 13:02:36;;;;;;;;;;;;;;;21.19;37.21;98111.04;68410;1280;1015764;-70
2024/02/25 13:05:39;;;;;;;;;;;;;;;21.28;37.26;98105.53;68425;1280;1015462;-70
2024/02/25 13:08:41;;;;;;;;;;;;;;;21.32;37.33;98101.88;68417;1280;1016006;-70
2024/02/25 13:11:44;;;;;;;;;;;;;;;21.39;37.34;98097.21;68408;1279;1015676;-70
2024/02/25 13:14:46;;;;;;;;;;;;;;;21.38;37.25;98099.30;68429;1279;1015822;-70
2024/02/25 13:17:49;;;;;;;;;;;;;;;21.40;37.69;98092.10;68412;1279;1015437;-70
2024/02/25 13:20:52;;;;;;;;;;;;;;;21.44;37.30;98088.27;68414;1279;1015622;-69
2024/02/25 13:23:54;;;;;;;;;;;;;;;21.29;37.54;98095.14;68397;1279;1016167;-70
2024/02/25 13:26:57;;;;;;;;;;;;;;;21.29;37.65;98086.02;68401;1279;1015606;-70
2024/02/25 13:30:00;;;;;;;;;;;;;;;21.18;37.55;98089.79;68427;1279;1015499;-70
2024/02/25 13:33:02;;;;;;;;;;;;;;;21.16;37.75;98087.38;68422;1279;1015813;-70
2024/02/25 13:36:05;;;;;;;;;;;;;;;21.06;38.09;98083.35;68415;1279;1016142;-70
2024/02/25 13:39:08;;;;;;;;;;;;;;;21.04;38.18;98088.23;68406;1279;1015776;-70
2024/02/25 13:42:10;;;;;;;;;;;;;;;21.01;38.40;98084.89;68411;1279;1016251;-70
2024/02/25 13:45:13;;;;;;;;;;;;;;;20.86;38.63;98082.70;68421;1279;1015623;-70
2024/02/25 13:48:15;;;;;;;;;;;;;;;20.83;38.59;98079.83;68394;1279;1016128;-70
2024/02/25 13:51:20;;;;;;;;;;;;;;;20.75;38.49;98075.98;68406;1279;1015659;-70
2024/02/25 13:54:23;;;;;;;;;;;;;;;20.69;38.50;98081.81;68405;1279;1015817;-70
2024/02/25 13:57:27;;;;;;;;;;;;;;;20.50;38.83;98075.23;68416;1279;1016190;-70
2024/02/25 14:00:29;;;;;;;;;;;;;;;20.31;38.61;98074.46;68414;1279;1015848;-70
2024/02/25 14:03:32;;;;;;;;;;;;;;;20.00;38.96;98071.38;68408;1279;1016168;-70
2024/02/25 14:06:36;;;;;;;;;;;;;;;20.01;39.05;98067.80;68404;1279;1016088;-70
2024/02/25 14:09:39;;;;;;;;;;;;;;;19.80;39.42;98065.88;68412;1279;1016252;-69
2024/02/25 14:16:00;;;;;;;;;;;;;;;19.78;39.43;98059.18;68405;1279;1016135;-70
2024/02/25 14:19:03;;;;;;;;;;;;;;;19.61;39.87;98057.98;68415;1279;1015804;-70
2024/02/25 14:22:06;;;;;;;;;;;;;;;19.59;39.95;98058.41;68398;1279;1016030;-70
2024/02/25 14:25:08;;;;;;;;;;;;;;;19.65;39.91;98056.27;68387;1279;1016133;-70
2024/02/25 14:28:11;;;;;;;;;;;;;;;19.61;39.95;98059.26;68412;1279;1016066;-69
2024/02/25 14:31:14;;;;;;;;;;;;;;;19.63;40.02;98057.44;68415;1279;1015942;-70
2024/02/25 14:34:17;;;;;;;;;;;;;;;19.54;40.18;98052.77;68415;1279;1015961;-70
2024/02/25 14:37:19;;;;;;;;;;;;;;;19.48;40.44;98059.73;68395;1279;1016100;-70
2024/02/25 14:40:22;;;;;;;;;;;;;;;19.44;40.79;98054.58;68407;1279;1015801;-70
2024/02/25 14:43:25;;;;;;;;;;;;;;;19.47;40.84;98056.86;68399;1279;1015977;-70
2024/02/25 14:46:27;;;;;;;;;;;;;;;19.42;41.04;98061.96;68412;1279;1015484;-70
2024/02/25 14:49:30;;;;;;;;;;;;;;;19.49;41.08;98057.87;68401;1279;1016301;-70
2024/02/25 14:52:32;;;;;;;;;;;;;;;19.35;41.38;98063.34;68391;1279;1016022;-68
2024/02/25 14:55:35;;;;;;;;;;;;;;;19.22;41.68;98063.52;68431;1279;1016191;-70
2024/02/25 14:58:38;;;;;;;;;;;;;;;19.12;41.89;98057.47;68388;1279;1015312;-70
2024/02/25 15:01:40;;;;;;;;;;;;;;;19.02;42.15;98060.63;68393;1279;1015493;-70
2024/02/25 15:04:46;;;;;;;;;;;;;;;18.88;42.23;98059.65;68404;1279;1016093;-69
2024/02/25 15:07:50;;;;;;;;;;;;;;;18.70;42.60;98061.54;68392;1279;1014998;-70
2024/02/25 15:10:53;;;;;;;;;;;;;;;18.71;42.48;98050.82;68387;1279;1016166;-70
2024/02/25 15:13:56;;;;;;;;;;;;;;;18.72;42.63;98051.88;68441;1279;1016545;-70
2024/02/25 15:16:59;;;;;;;;;;;;;;;18.64;42.82;98053.66;68391;1280;1016108;-70
2024/02/25 15:20:02;;;;;;;;;;;;;;;18.67;42.82;98048.09;68401;1279;1015511;-70
2024/02/25 15:23:06;;;;;;;;;;;;;;;18.61;42.90;98039.73;68415;1279;1014814;-67
2024/02/25 15:26:09;;;;;;;;;;;;;;;18.60;42.79;98023.84;68400;1279;1016188;-70
2024/02/25 15:29:12;;;;;;;;;;;;;;;18.55;43.03;98025.84;68412;1280;1015798;-70
2024/02/25 15:32:15;;;;;;;;;;;;;;;18.46;43.03;98029.77;68416;1279;1015150;-70
2024/02/25 15:35:22;;;;;;;;;;;;;;;18.42;43.07;98028.59;68416;1280;1016263;-70
2024/02/25 15:38:24;;;;;;;;;;;;;;;18.25;43.44;98025.60;68401;1279;1015868;-69